Time;durP1;ratioP1;P1;durP2;ratioP2;P2;SDS_P1;SDS_P2;PMS_P1;PMS_P2;Temp;Humidity;BMP_temperature;BMP_pressure;BME280_temperature;BME280_humidity;BME280_pressure;Samples;Min_cycle;Max_cycle;Signal;HPM_P1;HPM_P2
2022/02/27 00:00:07;;;;;;;1.20;1.10;;;1.20;98.00;;;;;;5111933;28;20775;-68
2022/02/27 00:02:35;;;;;;;1.60;1.20;;;1.20;98.00;;;;;;5111760;28;20544;-68
2022/02/27 00:05:03;;;;;;;1.90;1.80;;;1.10;98.00;;;;;;5111770;28;20459;-68
2022/02/27 00:07:30;;;;;;;1.30;1.20;;;1.20;98.00;;;;;;5112265;28;20890;-67
2022/02/27 00:09:58;;;;;;;1.77;1.23;;;1.10;98.00;;;;;;5114240;28;20949;-68
2022/02/27 00:12:26;;;;;;;2.17;1.40;;;1.20;98.00;;;;;;5114629;28;21080;-68
2022/02/27 00:14:53;;;;;;;1.30;1.20;;;1.30;98.00;;;;;;5114948;28;20994;-68
2022/02/27 00:17:20;;;;;;;1.20;1.00;;;1.20;98.00;;;;;;5114927;28;21011;-68
2022/02/27 00:19:48;;;;;;;1.20;1.00;;;1.10;98.00;;;;;;5115237;28;20455;-68
2022/02/27 00:22:15;;;;;;;1.20;1.10;;;0.90;98.00;;;;;;5115251;28;20458;-68
2022/02/27 00:24:42;;;;;;;2.03;1.50;;;0.90;98.00;;;;;;5114905;28;20490;-68
2022/02/27 00:27:09;;;;;;;1.67;1.37;;;1.10;98.00;;;;;;5115333;28;20454;-68
2022/02/27 00:29:39;;;;;;;1.50;1.07;;;1.10;98.00;;;;;;5115404;28;20870;-68
2022/02/27 00:32:10;;;;;;;1.50;1.07;;;1.20;98.00;;;;;;5113793;28;21195;-68
2022/02/27 00:34:38;;;;;;;1.47;1.27;;;1.10;98.00;;;;;;5114741;28;20450;-68
2022/02/27 00:37:07;;;;;;;1.20;1.00;;;1.00;98.00;;;;;;5114968;28;20458;-68
2022/02/27 00:39:38;;;;;;;1.20;1.20;;;0.90;98.00;;;;;;5113847;28;20498;-68
2022/02/27 00:42:06;;;;;;;1.20;1.10;;;1.00;98.00;;;;;;5115125;28;20483;-68
2022/02/27 00:44:35;;;;;;;1.97;1.57;;;1.00;98.00;;;;;;5115002;28;20450;-68
2022/02/27 00:47:02;;;;;;;1.20;1.00;;;1.10;98.00;;;;;;5114747;28;20462;-68
2022/02/27 00:49:29;;;;;;;1.20;1.13;;;1.00;98.00;;;;;;5114811;28;20496;-68
2022/02/27 00:51:56;;;;;;;1.20;1.10;;;1.00;98.00;;;;;;5114552;28;20517;-68
2022/02/27 00:54:25;;;;;;;1.20;1.00;;;1.00;98.00;;;;;;5114732;28;20454;-68
2022/02/27 00:56:52;;;;;;;1.30;1.17;;;1.10;98.00;;;;;;5114154;28;21151;-68
2022/02/27 00:59:19;;;;;;;1.20;1.00;;;1.30;98.00;;;;;;5113249;28;20510;-68
2022/02/27 01:01:47;;;;;;;1.20;1.03;;;1.40;98.00;;;;;;5113026;28;20476;-68
2022/02/27 01:04:14;;;;;;;1.30;1.20;;;1.40;98.00;;;;;;5114368;28;20494;-68
2022/02/27 01:06:41;;;;;;;2.17;1.73;;;1.40;98.00;;;;;;5114111;28;20546;-68
2022/02/27 01:09:09;;;;;;;1.30;1.10;;;1.40;98.00;;;;;;5114123;28;20465;-68
2022/02/27 01:11:45;;;;;;;1.37;1.27;;;1.40;98.00;;;;;;5113449;28;20606;-67
2022/02/27 01:14:13;;;;;;;2.80;1.97;;;1.40;98.00;;;;;;5113759;28;20496;-68
2022/02/27 01:16:39;;;;;;;2.83;1.87;;;1.30;98.00;;;;;;5113728;28;20458;-68
2022/02/27 01:19:08;;;;;;;2.13;1.97;;;1.20;98.00;;;;;;5113633;28;20504;-68
2022/02/27 01:21:36;;;;;;;1.67;1.23;;;0.90;98.00;;;;;;5114153;28;20485;-67
2022/02/27 01:24:03;;;;;;;1.40;1.37;;;0.70;98.00;;;;;;5114195;28;20455;-68
2022/02/27 01:26:31;;;;;;;1.20;0.97;;;0.80;98.00;;;;;;5113881;28;20877;-68
2022/02/27 01:29:01;;;;;;;1.50;1.50;;;0.60;98.00;;;;;;5114501;27;20486;-68
2022/02/27 01:31:28;;;;;;;1.90;1.43;;;0.60;98.00;;;;;;5114049;28;20482;-68
2022/02/27 01:33:56;;;;;;;1.40;1.20;;;0.70;98.00;;;;;;5113897;28;20522;-68
2022/02/27 01:36:23;;;;;;;1.87;1.30;;;0.70;98.00;;;;;;5114077;28;20446;-67
2022/02/27 01:38:50;;;;;;;2.37;1.37;;;0.50;98.00;;;;;;5114040;28;20498;-68
2022/02/27 01:41:17;;;;;;;1.20;1.00;;;0.60;98.00;;;;;;5113939;28;20503;-68
2022/02/27 01:43:45;;;;;;;3.00;1.80;;;0.60;98.00;;;;;;5113970;28;20961;-68
2022/02/27 01:46:15;;;;;;;1.60;1.50;;;0.60;98.00;;;;;;5113422;28;20460;-68
2022/02/27 01:48:42;;;;;;;2.77;2.57;;;0.70;98.00;;;;;;5113392;28;20489;-67
2022/02/27 01:51:10;;;;;;;1.73;1.63;;;0.60;98.00;;;;;;5113513;28;20514;-68
2022/02/27 01:53:40;;;;;;;1.20;1.10;;;0.40;98.00;;;;;;5113013;28;20511;-67
2022/02/27 01:56:07;;;;;;;1.60;1.30;;;0.40;98.00;;;;;;5113608;28;20519;-68
2022/02/27 01:58:34;;;;;;;2.63;1.57;;;0.40;98.00;;;;;;5113172;28;20513;-67
2022/02/27 02:01:01;;;;;;;1.97;1.73;;;0.40;98.00;;;;;;5111982;28;20458;-68
2022/02/27 02:03:30;;;;;;;1.30;1.10;;;0.40;98.00;;;;;;5113196;28;20530;-68
2022/02/27 02:05:57;;;;;;;1.30;1.20;;;0.20;98.00;;;;;;5111940;28;20545;-67
2022/02/27 02:08:24;;;;;;;1.80;1.17;;;0.30;98.00;;;;;;5113218;28;20482;-67
2022/02/27 02:10:51;;;;;;;1.20;1.00;;;0.30;98.00;;;;;;5113120;28;20494;-68
2022/02/27 02:13:18;;;;;;;2.40;2.20;;;0.30;98.00;;;;;;5112906;28;20529;-68
2022/02/27 02:15:45;;;;;;;2.17;1.60;;;0.30;98.00;;;;;;5113093;28;20465;-68
2022/02/27 02:18:12;;;;;;;1.23;1.23;;;0.10;98.00;;;;;;5113068;28;20490;-68
2022/02/27 02:20:41;;;;;;;1.20;1.20;;;0.10;98.00;;;;;;5113111;28;20491;-68
2022/02/27 02:23:08;;;;;;;1.20;1.20;;;0.30;98.00;;;;;;5113053;28;20481;-67
2022/02/27 02:25:35;;;;;;;1.20;1.13;;;0.40;98.00;;;;;;5112981;28;20461;-68
2022/02/27 02:28:02;;;;;;;1.50;1.30;;;0.40;98.00;;;;;;5112915;28;20498;-67
2022/02/27 02:30:30;;;;;;;1.20;1.20;;;0.50;98.00;;;;;;5112182;28;21007;-68
2022/02/27 02:32:59;;;;;;;1.20;1.07;;;0.30;98.00;;;;;;5112892;28;20558;-68
2022/02/27 02:35:31;;;;;;;1.20;1.20;;;0.30;98.00;;;;;;5113224;28;20493;-68
2022/02/27 02:38:00;;;;;;;1.83;1.40;;;0.30;98.00;;;;;;5112461;28;20486;-68
2022/02/27 02:40:28;;;;;;;1.20;1.10;;;0.50;98.00;;;;;;5112396;28;20511;-68
2022/02/27 02:42:55;;;;;;;1.20;1.00;;;0.50;98.00;;;;;;5112562;28;20557;-67
2022/02/27 02:45:22;;;;;;;1.50;1.30;;;0.40;98.00;;;;;;5112459;28;20490;-67
2022/02/27 02:47:50;;;;;;;1.53;1.40;;;0.30;98.00;;;;;;5112511;28;20486;-68
2022/02/27 02:50:18;;;;;;;1.70;1.60;;;0.40;98.00;;;;;;5112473;28;20461;-68
2022/02/27 02:52:46;;;;;;;1.13;1.00;;;0.30;98.00;;;;;;5112395;28;20482;-68
2022/02/27 02:55:17;;;;;;;1.10;1.00;;;0.40;98.00;;;;;;5111234;28;20468;-67
2022/02/27 02:57:44;;;;;;;1.20;1.10;;;0.30;98.00;;;;;;5112197;28;20549;-67
2022/02/27 03:00:13;;;;;;;1.60;1.50;;;0.20;98.00;;;;;;5112359;28;20490;-67
2022/02/27 03:02:41;;;;;;;1.90;1.40;;;0.20;98.00;;;;;;5112298;28;20868;-67
2022/02/27 03:05:09;;;;;;;1.20;1.00;;;0.20;98.00;;;;;;5112328;28;20569;-67
2022/02/27 03:07:36;;;;;;;5.33;1.50;;;0.10;98.00;;;;;;5112229;28;20534;-67
2022/02/27 03:10:04;;;;;;;1.20;1.13;;;0.00;98.00;;;;;;5112127;28;20497;-67
2022/02/27 03:12:33;;;;;;;1.70;1.60;;;0.00;98.00;;;;;;5112011;28;20482;-68
2022/02/27 03:15:00;;;;;;;1.20;1.00;;;0.10;98.00;;;;;;5112308;28;20493;-67
2022/02/27 03:17:27;;;;;;;2.77;1.80;;;0.20;98.00;;;;;;5112062;28;20536;-67
2022/02/27 03:19:54;;;;;;;1.30;1.30;;;0.10;98.00;;;;;;5112342;28;20493;-67
2022/02/27 03:22:21;;;;;;;1.20;1.03;;;0.20;98.00;;;;;;5112443;28;20527;-68
2022/02/27 03:24:51;;;;;;;1.20;1.13;;;0.30;98.00;;;;;;5112332;28;20546;-67
2022/02/27 03:27:18;;;;;;;1.30;1.17;;;0.20;98.00;;;;;;5112120;28;20466;-67
2022/02/27 03:29:46;;;;;;;1.43;1.40;;;0.30;98.00;;;;;;5111934;28;20480;-68
2022/02/27 03:32:13;;;;;;;1.20;1.10;;;0.20;98.00;;;;;;5112171;28;20516;-67
2022/02/27 03:34:42;;;;;;;1.30;1.20;;;0.20;98.00;;;;;;5112032;28;20493;-67
2022/02/27 03:37:15;;;;;;;1.63;1.57;;;0.20;98.00;;;;;;5110452;28;20534;-68
2022/02/27 03:39:42;;;;;;;1.30;1.10;;;0.20;98.00;;;;;;5111925;28;21036;-67
2022/02/27 03:42:10;;;;;;;1.20;1.10;;;0.30;98.00;;;;;;5113790;28;20449;-67
2022/02/27 03:44:37;;;;;;;1.40;1.23;;;0.30;98.00;;;;;;5116107;28;20548;-67
2022/02/27 03:47:06;;;;;;;2.23;2.07;;;0.30;98.00;;;;;;5115955;28;20553;-67
2022/02/27 03:49:33;;;;;;;1.20;1.00;;;0.30;98.00;;;;;;5115853;28;20498;-67
2022/02/27 03:52:03;;;;;;;1.50;1.50;;;0.50;98.00;;;;;;5115764;28;20517;-67
2022/02/27 03:54:30;;;;;;;1.20;1.10;;;0.60;98.00;;;;;;5114765;28;20454;-67
2022/02/27 03:56:57;;;;;;;1.20;1.10;;;0.70;98.00;;;;;;5115668;27;20565;-67
2022/02/27 03:59:24;;;;;;;1.37;1.20;;;0.70;98.00;;;;;;5115973;28;20885;-67
2022/02/27 04:01:54;;;;;;;2.23;2.03;;;0.80;98.00;;;;;;5114377;28;20548;-67
2022/02/27 04:04:22;;;;;;;1.20;1.00;;;0.80;98.00;;;;;;5115759;28;20485;-67
2022/02/27 04:06:51;;;;;;;1.37;1.33;;;0.90;98.00;;;;;;5115663;28;20464;-67
2022/02/27 04:09:21;;;;;;;1.20;1.00;;;0.80;98.00;;;;;;5114559;28;20462;-67
2022/02/27 04:11:48;;;;;;;1.30;1.20;;;0.80;98.00;;;;;;5115719;28;20513;-67
2022/02/27 04:14:15;;;;;;;1.30;1.10;;;0.70;98.00;;;;;;5115597;28;20546;-67
2022/02/27 04:16:43;;;;;;;1.20;1.03;;;0.70;98.00;;;;;;5115594;28;20504;-67
2022/02/27 04:19:10;;;;;;;2.03;1.77;;;0.50;98.00;;;;;;5115561;28;20533;-68
2022/02/27 04:21:38;;;;;;;1.40;1.37;;;0.40;98.00;;;;;;5115013;28;20493;-67
2022/02/27 04:24:07;;;;;;;1.20;1.07;;;0.40;98.00;;;;;;5115492;28;20485;-67
2022/02/27 04:26:34;;;;;;;1.60;1.47;;;0.40;98.00;;;;;;5114943;28;20497;-67
2022/02/27 04:29:04;;;;;;;1.20;1.00;;;0.30;98.00;;;;;;5115324;28;20837;-67
2022/02/27 04:31:31;;;;;;;2.40;1.73;;;0.20;98.00;;;;;;5114928;28;20542;-67
2022/02/27 04:33:59;;;;;;;1.20;1.17;;;0.30;98.00;;;;;;5115179;28;20914;-67
2022/02/27 04:36:29;;;;;;;1.20;1.00;;;0.30;98.00;;;;;;5114637;28;20466;-67
2022/02/27 04:38:57;;;;;;;1.10;1.00;;;0.30;98.00;;;;;;5114947;28;20561;-67
2022/02/27 04:41:24;;;;;;;1.63;1.43;;;0.40;98.00;;;;;;5115067;28;20541;-67
2022/02/27 04:43:51;;;;;;;1.20;1.00;;;0.40;98.00;;;;;;5114854;28;20497;-67
2022/02/27 04:46:19;;;;;;;1.20;0.97;;;0.50;98.00;;;;;;5115101;28;20462;-67
2022/02/27 04:48:46;;;;;;;1.20;1.00;;;0.50;98.00;;;;;;5113593;28;20455;-67
2022/02/27 04:51:13;;;;;;;1.20;1.00;;;0.50;98.00;;;;;;5114903;28;20541;-67
2022/02/27 04:53:41;;;;;;;1.80;1.70;;;0.50;98.00;;;;;;5114060;28;20538;-67
2022/02/27 04:56:10;;;;;;;1.13;1.00;;;0.60;98.00;;;;;;5114641;28;20871;-67
2022/02/27 04:58:37;;;;;;;1.30;1.20;;;0.50;98.00;;;;;;5114566;28;20466;-67
2022/02/27 05:01:06;;;;;;;1.47;1.20;;;0.50;98.00;;;;;;5114834;28;20989;-67
2022/02/27 05:03:33;;;;;;;5.90;1.47;;;0.50;98.00;;;;;;5114597;28;20515;-67
2022/02/27 05:06:00;;;;;;;2.37;1.70;;;0.40;98.00;;;;;;5114561;28;20490;-67
2022/02/27 05:08:27;;;;;;;1.60;1.43;;;0.30;98.00;;;;;;5114589;28;20949;-67
2022/02/27 05:10:54;;;;;;;1.30;1.20;;;0.20;98.00;;;;;;5114327;28;20874;-67
2022/02/27 05:13:23;;;;;;;1.20;1.10;;;0.10;98.00;;;;;;5114270;28;20488;-67
2022/02/27 05:15:50;;;;;;;1.80;1.47;;;0.20;98.00;;;;;;5114138;28;20488;-67
2022/02/27 05:18:17;;;;;;;1.30;1.20;;;0.20;98.00;;;;;;5114111;28;20530;-67
2022/02/27 05:20:44;;;;;;;1.67;1.57;;;0.20;98.00;;;;;;5114184;28;20520;-67
2022/02/27 05:23:11;;;;;;;1.17;1.00;;;0.20;98.00;;;;;;5113979;28;20493;-67
2022/02/27 05:25:38;;;;;;;1.10;1.00;;;0.20;98.00;;;;;;5113980;28;20458;-67
2022/02/27 05:28:06;;;;;;;2.67;1.60;;;0.00;98.00;;;;;;5113759;28;20500;-67
2022/02/27 05:30:35;;;;;;;1.50;1.50;;;0.00;98.00;;;;;;5096056;28;20545;-68
2022/02/27 05:33:02;;;;;;;2.90;1.70;;;-0.10;98.00;;;;;;5113644;28;20482;-67
2022/02/27 05:35:29;;;;;;;1.20;1.13;;;-0.20;98.00;;;;;;5113988;28;20948;-67
2022/02/27 05:37:56;;;;;;;6.50;3.40;;;-0.20;98.00;;;;;;5113786;28;20482;-67
2022/02/27 05:40:23;;;;;;;1.97;1.53;;;-0.20;98.00;;;;;;5113767;28;20544;-67
2022/02/27 05:42:50;;;;;;;1.10;1.00;;;-0.30;98.00;;;;;;5113642;28;20539;-67
2022/02/27 05:45:17;;;;;;;1.40;1.30;;;-0.40;98.00;;;;;;5113699;28;20536;-67
2022/02/27 05:47:46;;;;;;;1.10;1.00;;;-0.40;98.00;;;;;;5113667;28;20536;-67
2022/02/27 05:50:13;;;;;;;1.93;1.80;;;-0.40;98.00;;;;;;5113721;28;20454;-67
2022/02/27 05:52:40;;;;;;;2.17;1.40;;;-0.30;98.00;;;;;;5113587;28;20568;-67
2022/02/27 05:55:10;;;;;;;1.20;1.00;;;-0.30;98.00;;;;;;5113633;28;20547;-67
2022/02/27 05:57:37;;;;;;;1.27;1.23;;;-0.30;98.00;;;;;;5113571;28;20964;-68
2022/02/27 06:00:07;;;;;;;1.60;1.43;;;-0.30;98.00;;;;;;5113315;28;20504;-68
2022/02/27 06:02:34;;;;;;;1.13;1.00;;;-0.30;98.00;;;;;;5113137;28;20556;-68
2022/02/27 06:05:02;;;;;;;1.10;1.07;;;-0.30;98.00;;;;;;5111954;28;20461;-68
2022/02/27 06:07:29;;;;;;;1.60;1.43;;;-0.30;98.00;;;;;;5113137;28;20541;-68
2022/02/27 06:09:57;;;;;;;1.20;1.20;;;-0.20;98.00;;;;;;5112688;28;20456;-68
2022/02/27 06:12:26;;;;;;;2.60;2.30;;;-0.10;98.00;;;;;;5112329;28;20956;-68
2022/02/27 06:14:53;;;;;;;1.10;1.00;;;-0.10;98.00;;;;;;5094265;28;20495;-68
2022/02/27 06:17:21;;;;;;;1.10;1.00;;;-0.20;98.00;;;;;;5111570;28;20489;-68
2022/02/27 06:19:49;;;;;;;1.40;1.33;;;-0.10;98.00;;;;;;5111952;28;20554;-68
2022/02/27 06:22:20;;;;;;;1.20;1.10;;;0.00;98.00;;;;;;5112779;28;20854;-68
2022/02/27 06:24:48;;;;;;;1.20;1.20;;;0.00;98.00;;;;;;5111600;28;20467;-68
2022/02/27 06:27:15;;;;;;;1.37;1.20;;;0.10;98.00;;;;;;5112718;28;20493;-68
2022/02/27 06:29:42;;;;;;;1.23;1.20;;;0.10;98.00;;;;;;5112702;28;21016;-68
2022/02/27 06:32:10;;;;;;;2.70;2.37;;;0.20;98.00;;;;;;5112742;28;20621;-67
2022/02/27 06:34:37;;;;;;;1.10;1.00;;;0.20;98.00;;;;;;5112680;28;20517;-68
2022/02/27 06:37:05;;;;;;;1.20;1.10;;;0.10;98.00;;;;;;5111318;28;20545;-68
2022/02/27 06:39:33;;;;;;;2.03;1.50;;;0.10;98.00;;;;;;5112834;28;20547;-68
2022/02/27 06:42:01;;;;;;;1.43;1.40;;;0.20;98.00;;;;;;5112636;28;20483;-68
2022/02/27 06:44:28;;;;;;;2.00;1.40;;;0.30;98.00;;;;;;5112679;28;20468;-67
2022/02/27 06:46:55;;;;;;;2.00;1.40;;;0.20;98.00;;;;;;5112845;28;20493;-68
2022/02/27 06:49:23;;;;;;;1.20;1.20;;;0.30;98.00;;;;;;5112921;28;20855;-68
2022/02/27 06:51:50;;;;;;;2.13;1.40;;;0.20;98.00;;;;;;5111833;28;21155;-68
2022/02/27 06:54:22;;;;;;;1.10;1.00;;;0.20;98.00;;;;;;5111985;28;20492;-68
2022/02/27 06:56:50;;;;;;;1.30;1.30;;;;;;;;;;5111990;28;20493;-67
2022/02/27 06:59:17;;;;;;;1.30;1.20;;;0.40;98.00;;;;;;5112448;28;20482;-68
2022/02/27 07:01:44;;;;;;;1.50;1.40;;;0.30;98.00;;;;;;5112043;28;20482;-68
2022/02/27 07:04:11;;;;;;;1.53;1.50;;;0.30;98.00;;;;;;5112300;28;20494;-68
2022/02/27 07:06:38;;;;;;;1.10;1.00;;;0.50;98.00;;;;;;5111982;28;20458;-68
2022/02/27 07:09:06;;;;;;;1.20;1.10;;;0.60;98.00;;;;;;5111076;28;20501;-68
2022/02/27 07:11:33;;;;;;;1.30;1.10;;;0.60;98.00;;;;;;5112052;28;20453;-68
2022/02/27 07:14:02;;;;;;;1.20;1.20;;;0.60;98.00;;;;;;5112230;28;20543;-68
2022/02/27 07:16:29;;;;;;;2.20;1.80;;;0.80;98.00;;;;;;5111672;28;20493;-68
2022/02/27 07:18:57;;;;;;;1.10;1.00;;;0.90;98.00;;;;;;5112116;28;21077;-68
2022/02/27 07:21:29;;;;;;;1.20;1.10;;;1.00;98.00;;;;;;5110794;28;20800;-68
2022/02/27 07:23:56;;;;;;;1.33;1.17;;;1.00;98.00;;;;;;5111402;28;21028;-68
2022/02/27 07:26:23;;;;;;;1.10;1.00;;;1.10;98.00;;;;;;5111998;28;20499;-68
2022/02/27 07:28:52;;;;;;;1.30;1.30;;;1.10;98.00;;;;;;5112122;28;20488;-68
2022/02/27 07:31:20;;;;;;;1.60;1.40;;;1.10;98.00;;;;;;5111932;28;20933;-68
2022/02/27 07:33:47;;;;;;;1.10;1.00;;;1.20;98.00;;;;;;5111999;28;20569;-68
2022/02/27 07:36:14;;;;;;;1.20;1.20;;;1.40;98.00;;;;;;5111857;28;20473;-68
2022/02/27 07:38:41;;;;;;;1.20;1.00;;;1.40;98.00;;;;;;5112076;28;20961;-68
2022/02/27 07:41:08;;;;;;;1.20;1.00;;;1.50;98.00;;;;;;5112124;28;20537;-68
2022/02/27 07:43:35;;;;;;;2.03;1.53;;;1.60;98.00;;;;;;5112236;28;20929;-68
2022/02/27 07:46:03;;;;;;;1.53;1.37;;;1.70;98.00;;;;;;5112095;28;20490;-68
2022/02/27 07:48:31;;;;;;;2.53;2.27;;;1.80;98.00;;;;;;5111590;28;20462;-68
2022/02/27 07:50:58;;;;;;;1.20;1.10;;;1.90;98.00;;;;;;5111845;28;20457;-68
2022/02/27 07:53:25;;;;;;;1.60;1.43;;;2.00;98.00;;;;;;5111680;28;20514;-67
2022/02/27 07:55:52;;;;;;;1.30;1.30;;;2.00;98.00;;;;;;5111736;28;20490;-68
2022/02/27 07:58:20;;;;;;;1.10;1.00;;;2.10;98.00;;;;;;5110196;28;20524;-68
2022/02/27 08:00:47;;;;;;;1.30;1.20;;;2.20;98.00;;;;;;5111808;28;20459;-67
2022/02/27 08:03:14;;;;;;;1.20;1.00;;;2.20;98.00;;;;;;5110247;28;20535;-67
2022/02/27 08:05:43;;;;;;;2.67;1.83;;;2.30;98.00;;;;;;5110556;28;20483;-67
2022/02/27 08:08:10;;;;;;;2.03;1.50;;;2.30;98.00;;;;;;5111611;28;20991;-67
2022/02/27 08:10:37;;;;;;;1.67;1.57;;;2.30;98.00;;;;;;5111488;28;20490;-67
2022/02/27 08:13:04;;;;;;;1.10;1.00;;;2.40;98.00;;;;;;5110515;28;20451;-68
2022/02/27 08:15:31;;;;;;;2.77;1.77;;;2.40;98.00;;;;;;5111827;28;20497;-67
2022/02/27 08:17:58;;;;;;;2.40;2.03;;;2.50;98.00;;;;;;5111525;28;20548;-68
2022/02/27 08:20:25;;;;;;;1.77;1.67;;;2.60;98.00;;;;;;5111586;28;20854;-67
2022/02/27 08:22:53;;;;;;;1.40;1.23;;;2.70;98.00;;;;;;5111651;28;20481;-68
2022/02/27 08:25:21;;;;;;;1.30;1.10;;;2.80;98.00;;;;;;5111513;28;20490;-68
2022/02/27 08:27:48;;;;;;;1.30;1.10;;;3.00;98.00;;;;;;5111598;28;20447;-68
2022/02/27 08:30:15;;;;;;;2.80;2.70;;;3.10;98.00;;;;;;5114930;28;20935;-68
2022/02/27 08:32:42;;;;;;;1.20;1.20;;;3.30;98.00;;;;;;5115275;28;20984;-67
2022/02/27 08:35:10;;;;;;;2.27;1.70;;;3.40;98.00;;;;;;5113969;28;20485;-67
2022/02/27 08:37:37;;;;;;;1.50;1.23;;;3.50;98.00;;;;;;5114949;28;20547;-67
2022/02/27 08:40:07;;;;;;;1.20;1.20;;;3.60;98.00;;;;;;5114905;28;20501;-68
2022/02/27 08:42:34;;;;;;;1.30;1.10;;;3.70;98.00;;;;;;5114794;28;20563;-67
2022/02/27 08:45:01;;;;;;;1.97;1.50;;;3.80;98.00;;;;;;5114855;28;20482;-67
2022/02/27 08:47:29;;;;;;;1.43;1.43;;;3.90;98.00;;;;;;5114587;28;20455;-67
2022/02/27 08:49:57;;;;;;;1.20;1.00;;;4.00;98.00;;;;;;5114509;28;20459;-67
2022/02/27 08:52:25;;;;;;;2.23;1.30;;;4.10;98.00;;;;;;5114701;28;20493;-67
2022/02/27 08:54:52;;;;;;;1.30;1.20;;;4.30;98.00;;;;;;5114699;28;20558;-68
2022/02/27 08:57:23;;;;;;;1.47;1.30;;;4.50;98.00;;;;;;5105527;28;21007;-67
2022/02/27 08:59:50;;;;;;;1.37;1.20;;;4.60;98.00;;;;;;5097485;28;20574;-67
2022/02/27 09:02:17;;;;;;;1.53;1.43;;;4.60;98.00;;;;;;5092659;28;20518;-67
2022/02/27 09:04:44;;;;;;;1.80;1.43;;;4.80;98.00;;;;;;5101351;28;20551;-67
2022/02/27 09:07:12;;;;;;;1.53;1.20;;;4.90;98.00;;;;;;5098763;28;21213;-67
2022/02/27 09:09:42;;;;;;;5.10;3.23;;;5.00;98.00;;;;;;5104184;28;20519;-67
2022/02/27 09:12:11;;;;;;;1.30;1.10;;;5.10;98.00;;;;;;5101190;28;20463;-67
2022/02/27 09:14:41;;;;;;;1.77;1.63;;;5.30;98.00;;;;;;5105550;28;20493;-67
2022/02/27 09:17:08;;;;;;;1.20;1.10;;;5.50;98.00;;;;;;5096981;28;20451;-67
2022/02/27 09:19:35;;;;;;;1.30;1.23;;;5.70;98.00;;;;;;5100502;28;20548;-67
2022/02/27 09:22:03;;;;;;;1.37;1.30;;;5.90;98.00;;;;;;5101444;28;20986;-66
2022/02/27 09:24:30;;;;;;;1.70;1.50;;;6.10;98.00;;;;;;5101853;28;20445;-67
2022/02/27 09:26:57;;;;;;;1.30;1.30;;;6.20;98.00;;;;;;5106636;28;20994;-67
2022/02/27 09:29:24;;;;;;;1.30;1.30;;;6.30;98.00;;;;;;5101164;28;20536;-67
2022/02/27 09:31:54;;;;;;;1.20;1.00;;;6.30;98.00;;;;;;5095265;28;20456;-67
2022/02/27 09:34:28;;;;;;;1.30;1.30;;;6.40;98.00;;;;;;5108247;28;20495;-69
2022/02/27 09:36:55;;;;;;;2.13;1.40;;;6.60;98.00;;;;;;5105639;28;20488;-69
2022/02/27 09:39:27;;;;;;;1.20;1.10;;;6.60;98.00;;;;;;5100358;28;20495;-70
2022/02/27 09:41:55;;;;;;;1.73;1.63;;;6.70;98.00;;;;;;5103666;28;21024;-69
2022/02/27 09:44:23;;;;;;;2.13;1.17;;;6.90;98.00;;;;;;5097029;28;20449;-68
2022/02/27 09:46:52;;;;;;;1.20;1.10;;;7.00;98.00;;;;;;5105611;28;21290;-69
2022/02/27 09:49:19;;;;;;;1.30;1.20;;;7.00;97.50;;;;;;5095378;28;20464;-69
2022/02/27 09:51:46;;;;;;;1.93;1.30;;;7.10;96.60;;;;;;5104496;28;20493;-68
2022/02/27 09:54:14;;;;;;;3.00;1.83;;;7.30;95.30;;;;;;5100668;28;21009;-68
2022/02/27 09:56:41;;;;;;;2.57;1.27;;;7.50;95.40;;;;;;5095321;28;20485;-72
2022/02/27 09:59:08;;;;;;;1.30;1.20;;;7.70;95.20;;;;;;5099966;28;20456;-71
2022/02/27 10:01:40;;;;;;;1.20;1.03;;;7.90;93.90;;;;;;5094340;28;20544;-71
2022/02/27 10:04:23;;;;;;;2.33;1.23;;;8.10;93.50;;;;;;5108137;28;20458;-69
2022/02/27 10:06:51;;;;;;;2.07;1.23;;;8.30;91.10;;;;;;5097846;28;20499;-70
2022/02/27 10:09:26;;;;;;;1.20;1.10;;;8.50;91.30;;;;;;5098610;28;20466;-70
2022/02/27 10:11:54;;;;;;;1.20;1.10;;;8.80;90.90;;;;;;5107685;28;20795;-72
2022/02/27 10:14:28;;;;;;;1.40;1.13;;;9.00;89.50;;;;;;5090517;28;20484;-70
2022/02/27 10:17:03;;;;;;;3.67;1.63;;;9.30;89.30;;;;;;5092250;28;20505;-70
2022/02/27 10:19:36;;;;;;;1.40;1.37;;;9.50;88.40;;;;;;5100631;28;21002;-69
2022/02/27 10:22:04;;;;;;;3.60;1.93;;;9.50;85.90;;;;;;5100732;28;20864;-69
2022/02/27 10:24:34;;;;;;;1.20;1.10;;;9.30;86.10;;;;;;5099974;28;20491;-70
2022/02/27 10:27:11;;;;;;;1.60;1.10;;;9.20;86.60;;;;;;5109094;28;20545;-69
2022/02/27 10:29:38;;;;;;;1.90;1.80;;;9.20;85.30;;;;;;5100750;28;20456;-70
2022/02/27 10:32:06;;;;;;;1.40;1.20;;;8.90;85.10;;;;;;5098978;28;20491;-69
2022/02/27 10:34:37;;;;;;;1.20;1.07;;;8.50;85.20;;;;;;5100066;28;20493;-67
2022/02/27 10:37:05;;;;;;;1.20;1.10;;;8.70;85.40;;;;;;5099278;28;20460;-67
2022/02/27 10:42:18;;;;;;;1.57;1.50;;;9.10;85.60;;;;;;5091209;28;20490;-67
2022/02/27 10:44:52;;;;;;;1.20;1.10;;;9.40;84.20;;;;;;5092932;28;20491;-67
2022/02/27 10:47:23;;;;;;;1.60;1.50;;;9.40;81.90;;;;;;5098978;28;20543;-67
2022/02/27 10:49:53;;;;;;;1.30;1.23;;;9.50;81.90;;;;;;5106150;28;20455;-67
2022/02/27 10:52:23;;;;;;;4.90;1.87;;;9.70;81.80;;;;;;5104836;28;20454;-67
2022/02/27 10:54:52;;;;;;;1.20;1.20;;;9.80;82.20;;;;;;5102699;28;21047;-68
2022/02/27 10:57:27;;;;;;;1.50;1.20;;;10.00;81.40;;;;;;5098481;28;20557;-69
2022/02/27 10:59:55;;;;;;;1.63;1.27;;;10.20;81.30;;;;;;5090974;28;20459;-72
2022/02/27 11:02:27;;;;;;;1.30;1.30;;;10.30;79.80;;;;;;5104110;28;20947;-68
2022/02/27 11:04:55;;;;;;;1.20;1.03;;;10.50;79.90;;;;;;5107087;28;20511;-72
2022/02/27 11:07:22;;;;;;;2.63;1.30;;;10.70;80.20;;;;;;5092747;28;20551;-72
2022/02/27 11:09:51;;;;;;;2.00;1.70;;;11.00;79.50;;;;;;5104506;28;20931;-71
2022/02/27 11:12:21;;;;;;;2.80;1.00;;;11.10;78.20;;;;;;5098850;28;20967;-72
2022/02/27 11:14:54;;;;;;;2.13;1.53;;;11.20;78.30;;;;;;5098059;28;20491;-72
2022/02/27 11:17:25;;;;;;;1.30;1.17;;;11.30;77.40;;;;;;5098202;28;20458;-71
2022/02/27 11:19:52;;;;;;;1.47;1.40;;;11.40;76.80;;;;;;5090147;28;20459;-71
2022/02/27 11:22:22;;;;;;;1.80;1.20;;;11.60;77.20;;;;;;5106111;28;20555;-71
2022/02/27 11:24:50;;;;;;;1.20;1.10;;;11.80;75.20;;;;;;5098968;28;20517;-73
2022/02/27 11:27:18;;;;;;;1.20;1.20;;;11.90;75.90;;;;;;5092128;28;20452;-71
2022/02/27 11:29:48;;;;;;;1.20;1.10;;;12.20;75.70;;;;;;5106909;28;20535;-71
2022/02/27 11:32:21;;;;;;;1.57;1.30;;;12.20;74.00;;;;;;5098629;28;20451;-71
2022/02/27 11:34:47;;;;;;;1.20;1.00;;;12.50;74.30;;;;;;5107528;28;20579;-72
2022/02/27 11:37:15;;;;;;;1.20;1.00;;;12.70;73.90;;;;;;5100669;28;20497;-74
2022/02/27 11:42:48;;;;;;;1.20;1.10;;;13.10;73.60;;;;;;5097534;28;20439;-73
2022/02/27 11:45:21;;;;;;;1.20;1.00;;;13.10;72.90;;;;;;5101315;28;20465;-73
2022/02/27 11:47:49;;;;;;;2.40;2.20;;;13.10;72.30;;;;;;5106891;28;20462;-73
2022/02/27 11:50:26;;;;;;;1.30;1.27;;;13.20;72.50;;;;;;5098183;28;20449;-73
2022/02/27 11:52:53;;;;;;;1.30;1.10;;;13.40;72.30;;;;;;5101230;28;20471;-73
2022/02/27 11:55:49;;;;;;;4.37;1.77;;;13.50;71.40;;;;;;5094401;28;20580;-73
2022/02/27 11:58:20;;;;;;;1.37;1.20;;;13.90;72.20;;;;;;5061026;28;20469;-73
2022/02/27 12:00:48;;;;;;;1.50;1.20;;;14.10;72.70;;;;;;5098183;28;20454;-72
2022/02/27 12:03:40;;;;;;;2.27;1.63;;;14.10;71.60;;;;;;5100483;28;20450;-73
2022/02/27 12:06:09;;;;;;;1.20;1.20;;;14.50;70.00;;;;;;5103678;28;20465;-73
2022/02/27 12:08:45;;;;;;;1.30;1.20;;;14.50;68.90;;;;;;5110358;28;20490;-73
2022/02/27 12:11:42;;;;;;;1.30;1.10;;;14.60;68.40;;;;;;5102238;28;20513;-73
2022/02/27 12:14:10;;;;;;;1.20;1.20;;;14.80;69.10;;;;;;5100975;28;20494;-74
2022/02/27 12:16:39;;;;;;;1.20;1.10;;;14.80;67.90;;;;;;5110520;28;20454;-72
2022/02/27 12:19:21;;;;;;;1.80;1.53;;;15.10;68.10;;;;;;5101481;28;20444;-72
2022/02/27 12:21:52;;;;;;;1.20;1.10;;;14.90;67.00;;;;;;5092664;28;20465;-73
2022/02/27 12:24:27;;;;;;;1.20;1.10;;;15.00;67.00;;;;;;5110752;28;20455;-73
2022/02/27 12:26:56;;;;;;;1.43;1.30;;;15.20;67.50;;;;;;5093114;28;20494;-73
2022/02/27 12:29:33;;;;;;;2.13;1.50;;;15.00;66.40;;;;;;5101178;28;20490;-73
2022/02/27 12:32:19;;;;;;;1.20;1.00;;;15.00;68.30;;;;;;5092679;28;20466;-73
2022/02/27 12:34:48;;;;;;;1.60;1.33;;;15.00;68.20;;;;;;5096098;28;20496;-73
2022/02/27 12:37:17;;;;;;;1.50;1.37;;;14.80;68.50;;;;;;5100708;28;20948;-73
2022/02/27 12:39:46;;;;;;;1.47;1.30;;;14.70;69.30;;;;;;5097929;28;20545;-74
2022/02/27 12:42:18;;;;;;;1.90;1.50;;;14.70;70.20;;;;;;5105174;28;20484;-74
2022/02/27 12:44:47;;;;;;;2.27;1.67;;;14.80;68.90;;;;;;5105386;28;20664;-73
2022/02/27 12:47:15;;;;;;;4.40;1.30;;;14.50;69.80;;;;;;5097070;28;20515;-74
2022/02/27 12:52:44;;;;;;;2.17;1.30;;;14.30;69.80;;;;;;5100436;28;20474;-73
2022/02/27 12:55:16;;;;;;;1.20;1.13;;;14.40;70.40;;;;;;5100869;28;20487;-73
2022/02/27 12:57:46;;;;;;;1.20;1.10;;;14.40;69.60;;;;;;5107953;28;20881;-71
2022/02/27 13:00:15;;;;;;;1.30;1.20;;;14.70;69.40;;;;;;5093680;28;20461;-72
2022/02/27 13:02:43;;;;;;;3.90;1.83;;;14.70;68.30;;;;;;5093168;28;20485;-71
2022/02/27 13:05:13;;;;;;;1.20;1.10;;;14.60;68.70;;;;;;5093378;28;20466;-72
2022/02/27 13:07:41;;;;;;;1.30;1.30;;;14.60;68.40;;;;;;5093225;28;20456;-71
2022/02/27 13:10:14;;;;;;;1.40;1.30;;;14.70;68.10;;;;;;5093307;28;20455;-72